createdAt,value
2016-06-05T00:00:20.164Z,0
2016-06-05T00:01:20.167Z,0
2016-06-05T00:02:20.170Z,0
2016-06-05T00:03:20.141Z,0
2016-06-05T00:04:20.003Z,0
2016-06-05T00:05:20.116Z,0
2016-06-05T00:06:20.119Z,0
2016-06-05T00:07:20.121Z,0
2016-06-05T00:08:20.123Z,0
2016-06-05T00:09:19.924Z,0
2016-06-05T00:10:20.097Z,0
2016-06-05T00:11:20.069Z,0
2016-06-05T00:12:20.135Z,0
2016-06-05T00:13:21.278Z,0
2016-06-05T00:14:20.062Z,0
2016-06-05T00:15:19.720Z,0
2016-06-05T00:16:20.020Z,0
2016-06-05T00:17:20.007Z,0
2016-06-05T00:18:20.026Z,0
2016-06-05T00:19:19.982Z,0
2016-06-05T00:20:20.093Z,0
2016-06-05T00:21:19.971Z,0
2016-06-05T00:22:19.849Z,0
2016-06-05T00:23:19.961Z,0
2016-06-05T00:24:19.964Z,0
2016-06-05T00:25:19.935Z,0
2016-06-05T00:26:19.938Z,0
2016-06-05T00:27:19.909Z,0
2016-06-05T00:28:19.771Z,0
2016-06-05T00:29:19.898Z,0
2016-06-05T00:30:19.933Z,0
2016-06-05T00:31:19.889Z,0
2016-06-05T00:32:19.891Z,0
2016-06-05T00:33:19.878Z,0
2016-06-05T00:34:19.866Z,0
2016-06-05T00:35:19.836Z,0
2016-06-05T00:36:19.839Z,0
2016-06-05T00:37:19.811Z,0
2016-06-05T00:38:19.814Z,0
2016-06-05T00:39:19.785Z,0
2016-06-05T00:40:19.819Z,0
2016-06-05T00:41:19.775Z,0
2016-06-05T00:42:20.075Z,0
2016-06-05T00:43:20.218Z,0
2016-06-05T00:44:19.751Z,0
2016-06-05T00:45:19.755Z,0
2016-06-05T00:46:19.585Z,0
2016-06-05T00:47:19.571Z,0
2016-06-05T00:48:19.715Z,0
2016-06-05T00:49:19.562Z,0
2016-06-05T00:50:19.690Z,0
2016-06-05T00:51:19.537Z,0
2016-06-05T00:52:19.695Z,0
2016-06-05T00:53:19.667Z,0
2016-06-05T00:54:19.701Z,0
2016-06-05T00:55:19.672Z,0
2016-06-05T00:56:19.643Z,0
2016-06-05T00:57:19.756Z,0
2016-06-05T00:58:19.852Z,0
2016-06-05T00:59:19.651Z,0
2016-06-05T01:00:19.592Z,0
2016-06-05T01:01:19.595Z,0
2016-06-05T01:02:19.566Z,0
2016-06-05T01:03:19.443Z,0
2016-06-05T01:04:19.603Z,0
2016-06-05T01:05:19.620Z,0
2016-06-05T01:06:19.561Z,0
2016-06-05T01:07:19.580Z,0
2016-06-05T01:08:19.535Z,0
2016-06-05T01:09:19.522Z,0
2016-06-05T01:10:19.509Z,0
2016-06-05T01:11:19.622Z,0
2016-06-05T01:12:19.483Z,0
2016-06-05T01:13:20.142Z,0
2016-06-05T01:14:19.457Z,0
2016-06-05T01:15:19.304Z,0
2016-06-05T01:16:19.463Z,0
2016-06-05T01:17:19.449Z,0
2016-06-05T01:18:19.280Z,0
2016-06-05T01:19:19.471Z,0
2016-06-05T01:20:19.411Z,0
2016-06-05T01:21:19.477Z,0
2016-06-05T01:22:19.401Z,0
2016-06-05T01:23:19.482Z,0
2016-06-05T01:24:19.375Z,0
2016-06-05T01:25:19.362Z,0
2016-06-05T01:26:19.349Z,0
2016-06-05T01:27:19.336Z,0
2016-06-05T01:28:19.948Z,0
2016-06-05T01:29:19.326Z,0
2016-06-05T01:30:19.312Z,0
2016-06-05T01:31:19.301Z,0
2016-06-05T01:32:19.287Z,0
2016-06-05T01:33:19.289Z,0
2016-06-05T01:34:19.261Z,0
2016-06-05T01:35:19.264Z,0
2016-06-05T01:36:19.267Z,0
2016-06-05T01:37:19.098Z,0
2016-06-05T01:38:19.256Z,0
2016-06-05T01:39:19.211Z,0
2016-06-05T01:40:19.215Z,0
2016-06-05T01:41:19.202Z,0
2016-06-05T01:42:19.189Z,0
2016-06-05T01:43:19.208Z,0
2016-06-05T01:44:19.164Z,0
2016-06-05T01:45:19.182Z,0
2016-06-05T01:46:19.199Z,0
2016-06-05T01:47:19.155Z,0
2016-06-05T01:48:19.143Z,0
2016-06-05T01:49:18.817Z,0
2016-06-05T01:50:19.180Z,0
2016-06-05T01:51:19.088Z,0
2016-06-05T01:52:19.091Z,0
2016-06-05T01:53:19.062Z,0
2016-06-05T01:54:19.096Z,0
2016-06-05T01:55:19.068Z,0
2016-06-05T01:56:19.055Z,0
2016-06-05T01:57:19.057Z,0
2016-06-05T01:58:19.997Z,0
2016-06-05T01:59:19.031Z,0
2016-06-05T02:00:19.113Z,0
2016-06-05T02:01:19.006Z,0
2016-06-05T02:02:18.978Z,0
2016-06-05T02:03:18.981Z,0
2016-06-05T02:04:19.029Z,0
2016-06-05T02:05:18.986Z,0
2016-06-05T02:06:19.003Z,0
2016-06-05T02:07:18.928Z,0
2016-06-05T02:08:18.915Z,0
2016-06-05T02:09:18.933Z,0
2016-06-05T02:10:18.983Z,0
2016-06-05T02:11:18.752Z,0
2016-06-05T02:12:18.739Z,0
2016-06-05T02:13:19.444Z,0
2016-06-05T02:14:18.869Z,0
2016-06-05T02:15:18.699Z,0
2016-06-05T02:16:18.890Z,0
2016-06-05T02:17:18.674Z,0
2016-06-05T02:18:18.832Z,0
2016-06-05T02:19:18.819Z,0
2016-06-05T02:20:18.822Z,0
2016-06-05T02:21:18.794Z,0
2016-06-05T02:22:18.812Z,0
2016-06-05T02:23:18.768Z,0
2016-06-05T02:24:18.770Z,0
2016-06-05T02:25:18.757Z,0
2016-06-05T02:26:18.746Z,0
2016-06-05T02:27:18.732Z,0
2016-06-05T02:28:18.656Z,0
2016-06-05T02:29:18.721Z,0
2016-06-05T02:30:18.724Z,0
2016-06-05T02:31:18.681Z,0
2016-06-05T02:32:18.683Z,0
2016-06-05T02:33:18.670Z,0
2016-06-05T02:34:18.657Z,0
2016-06-05T02:35:18.659Z,0
2016-06-05T02:36:18.662Z,0
2016-06-05T02:37:18.650Z,0
2016-06-05T02:38:18.637Z,0
2016-06-05T02:39:18.608Z,0
2016-06-05T02:40:18.594Z,0
2016-06-05T02:41:18.676Z,0
2016-06-05T02:42:18.428Z,0
2016-06-05T02:43:18.868Z,0
2016-06-05T02:44:18.575Z,0
2016-06-05T02:45:18.624Z,0
2016-06-05T02:46:18.533Z,0
2016-06-05T02:47:18.786Z,0
2016-06-05T02:48:18.523Z,0
2016-06-05T02:49:18.525Z,0
2016-06-05T02:50:18.497Z,0
2016-06-05T02:51:18.500Z,0
2016-06-05T02:52:18.331Z,0
2016-06-05T02:53:18.521Z,0
2016-06-05T02:54:18.460Z,0
2016-06-05T02:55:18.527Z,0
2016-06-05T02:56:18.419Z,0
2016-06-05T02:57:18.453Z,0
2016-06-05T02:58:18.691Z,0
2016-06-05T02:59:18.459Z,0
2016-06-05T03:00:18.398Z,0
2016-06-05T03:01:18.401Z,0
2016-06-05T03:02:18.373Z,0
2016-06-05T03:03:18.267Z,0
2016-06-05T03:04:18.347Z,0
2016-06-05T03:05:18.350Z,0
2016-06-05T03:06:18.336Z,0
2016-06-05T03:07:18.339Z,0
2016-06-05T03:08:18.311Z,0
2016-06-05T03:09:18.360Z,0
2016-06-05T03:10:18.301Z,0
2016-06-05T03:11:18.304Z,0
2016-06-05T03:12:18.291Z,0
2016-06-05T03:13:18.653Z,0
2016-06-05T03:14:18.249Z,0
2016-06-05T03:15:18.236Z,0
2016-06-05T03:16:18.239Z,0
2016-06-05T03:17:18.210Z,0
2016-06-05T03:18:18.213Z,0
2016-06-05T03:19:18.184Z,0
2016-06-05T03:20:18.187Z,0
2016-06-05T03:21:18.158Z,0
2016-06-05T03:22:18.192Z,0
2016-06-05T03:23:18.163Z,5
2016-06-05T03:24:18.135Z,5
2016-06-05T03:25:18.154Z,5
2016-06-05T03:26:18.141Z,5
2016-06-05T03:27:18.096Z,5
2016-06-05T03:28:17.974Z,5
2016-06-05T03:29:18.118Z,5
2016-06-05T03:30:18.089Z,5
2016-06-05T03:31:18.076Z,5
2016-06-05T03:32:18.079Z,5
2016-06-05T03:33:18.065Z,5
2016-06-05T03:34:18.068Z,5
2016-06-05T03:35:17.868Z,5
2016-06-05T03:36:18.059Z,5
2016-06-05T03:37:18.029Z,5
2016-06-05T03:38:18.095Z,10
2016-06-05T03:39:17.973Z,10
2016-06-05T03:40:17.959Z,10
2016-06-05T03:41:17.962Z,10
2016-06-05T03:42:18.011Z,10
2016-06-05T03:43:18.359Z,10
2016-06-05T03:44:18.002Z,10
2016-06-05T03:45:17.925Z,10
2016-06-05T03:46:17.960Z,10
2016-06-05T03:47:17.744Z,10
2016-06-05T03:48:17.934Z,10
2016-06-05T03:49:17.875Z,15
2016-06-05T03:50:17.908Z,15
2016-06-05T03:51:17.880Z,15
2016-06-05T03:52:17.867Z,15
2016-06-05T03:53:17.822Z,15
2016-06-05T03:54:17.825Z,15
2016-06-05T03:55:17.797Z,15
2016-06-05T03:56:17.830Z,15
2016-06-05T03:57:17.802Z,15
2016-06-05T03:58:17.851Z,15
2016-06-05T03:59:17.776Z,20
2016-06-05T04:00:17.748Z,20
2016-06-05T04:01:17.735Z,20
2016-06-05T04:02:17.769Z,20
2016-06-05T04:03:17.724Z,20
2016-06-05T04:04:17.727Z,20
2016-06-05T04:05:17.699Z,20
2016-06-05T04:06:17.764Z,20
2016-06-05T04:07:17.689Z,20
2016-06-05T04:08:17.706Z,25
2016-06-05T04:09:17.506Z,25
2016-06-05T04:10:17.681Z,25
2016-06-05T04:11:17.637Z,25
2016-06-05T04:12:17.639Z,25
2016-06-05T04:13:18.439Z,25
2016-06-05T04:14:17.614Z,25
2016-06-05T04:15:17.617Z,25
2016-06-05T04:16:17.572Z,30
2016-06-05T04:17:17.566Z,30
2016-06-05T04:18:17.596Z,30
2016-06-05T04:19:17.611Z,30
2016-06-05T04:20:17.642Z,30
2016-06-05T04:21:17.672Z,30
2016-06-05T04:22:17.682Z,30
2016-06-05T04:23:17.663Z,35
2016-06-05T04:24:17.660Z,35
2016-06-05T04:25:17.517Z,35
2016-06-05T04:26:17.686Z,35
2016-06-05T04:27:17.510Z,35
2016-06-05T04:28:17.657Z,35
2016-06-05T04:29:18.382Z,35
2016-06-05T04:30:17.655Z,35
2016-06-05T04:31:17.645Z,40
2016-06-05T04:32:17.635Z,40
2016-06-05T04:33:17.623Z,40
2016-06-05T04:34:17.612Z,40
2016-06-05T04:35:17.725Z,40
2016-06-05T04:36:17.604Z,40
2016-06-05T04:37:17.591Z,40
2016-06-05T04:38:17.564Z,45
2016-06-05T04:39:17.550Z,45
2016-06-05T04:40:17.570Z,45
2016-06-05T04:41:17.541Z,45
2016-06-05T04:42:17.513Z,45
2016-06-05T04:43:17.517Z,45
2016-06-05T04:44:17.520Z,45
2016-06-05T04:45:17.507Z,50
2016-06-05T04:46:17.511Z,50
2016-06-05T04:47:17.544Z,50
2016-06-05T04:48:17.453Z,50
2016-06-05T04:49:17.503Z,50
2016-06-05T04:50:17.302Z,50
2016-06-05T04:51:17.539Z,50
2016-06-05T04:52:17.448Z,55
2016-06-05T04:53:17.420Z,55
2016-06-05T04:54:17.407Z,55
2016-06-05T04:55:17.410Z,55
2016-06-05T04:56:17.380Z,55
2016-06-05T04:57:17.384Z,55
2016-06-05T04:58:17.574Z,55
2016-06-05T04:59:17.374Z,60
2016-06-05T05:00:17.329Z,60
2016-06-05T05:01:17.394Z,60
2016-06-05T05:02:17.304Z,60
2016-06-05T05:03:17.306Z,60
2016-06-05T05:04:17.324Z,60
2016-06-05T05:05:17.312Z,60
2016-06-05T05:06:17.283Z,60
2016-06-05T05:07:17.270Z,60
2016-06-05T05:08:17.273Z,60
2016-06-05T05:09:17.276Z,60
2016-06-05T05:10:17.247Z,60
2016-06-05T05:11:17.249Z,60
2016-06-05T05:12:17.236Z,60
2016-06-05T05:13:17.334Z,65
2016-06-05T05:14:17.211Z,65
2016-06-05T05:15:17.182Z,65
2016-06-05T05:16:17.184Z,65
2016-06-05T05:17:17.187Z,65
2016-06-05T05:18:17.159Z,65
2016-06-05T05:19:17.145Z,70
2016-06-05T05:20:17.148Z,70
2016-06-05T05:21:16.995Z,70
2016-06-05T05:22:17.217Z,70
2016-06-05T05:23:17.111Z,70
2016-06-05T05:24:17.097Z,70
2016-06-05T05:25:17.116Z,70
2016-06-05T05:26:17.119Z,75
2016-06-05T05:27:17.121Z,75
2016-06-05T05:28:17.014Z,75
2016-06-05T05:29:17.063Z,75
2016-06-05T05:30:17.066Z,75
2016-06-05T05:31:17.053Z,75
2016-06-05T05:32:17.072Z,75
2016-06-05T05:33:17.027Z,80
2016-06-05T05:34:17.093Z,80
2016-06-05T05:35:16.985Z,80
2016-06-05T05:36:16.832Z,80
2016-06-05T05:37:16.976Z,80
2016-06-05T05:38:16.963Z,80
2016-06-05T05:39:16.965Z,80
2016-06-05T05:40:17.015Z,80
2016-06-05T05:41:16.940Z,85
2016-06-05T05:42:16.927Z,85
2016-06-05T05:43:18.335Z,85
2016-06-05T05:44:16.947Z,85
2016-06-05T05:45:16.904Z,85
2016-06-05T05:46:16.906Z,85
2016-06-05T05:47:16.878Z,85
2016-06-05T05:48:16.911Z,85
2016-06-05T05:49:16.851Z,90
2016-06-05T05:50:16.901Z,90
2016-06-05T05:51:16.857Z,90
2016-06-05T05:52:16.859Z,90
2016-06-05T05:53:16.816Z,90
2016-06-05T05:54:16.819Z,90
2016-06-05T05:55:16.805Z,90
2016-06-05T05:56:16.808Z,90
2016-06-05T05:57:16.780Z,95
2016-06-05T05:58:16.783Z,95
2016-06-05T05:59:16.769Z,95
2016-06-05T06:00:16.475Z,95
2016-06-05T06:01:16.775Z,95
2016-06-05T06:02:16.761Z,95
2016-06-05T06:03:16.733Z,100
2016-06-05T06:04:16.721Z,100
2016-06-05T06:05:16.707Z,100
2016-06-05T06:06:16.679Z,100
2016-06-05T06:07:16.696Z,100
2016-06-05T06:08:16.699Z,100
2016-06-05T06:09:16.655Z,105
2016-06-05T06:10:16.532Z,105
2016-06-05T06:11:16.660Z,105
2016-06-05T06:12:16.632Z,105
2016-06-05T06:13:17.307Z,105
2016-06-05T06:14:16.622Z,105
2016-06-05T06:15:16.625Z,105
2016-06-05T06:16:16.643Z,105
2016-06-05T06:17:16.598Z,110
2016-06-05T06:18:16.601Z,110
2016-06-05T06:19:16.651Z,110
2016-06-05T06:20:16.592Z,110
2016-06-05T06:21:16.625Z,110
2016-06-05T06:22:16.581Z,110
2016-06-05T06:23:16.411Z,110
2016-06-05T06:24:16.556Z,115
2016-06-05T06:25:16.589Z,115
2016-06-05T06:26:16.529Z,115
2016-06-05T06:27:16.641Z,115
2016-06-05T06:28:16.378Z,115
2016-06-05T06:29:16.349Z,115
2016-06-05T06:30:16.477Z,115
2016-06-05T06:31:16.589Z,115
2016-06-05T06:32:16.483Z,115
2016-06-05T06:33:16.469Z,120
2016-06-05T06:34:16.472Z,120
2016-06-05T06:35:16.460Z,120
2016-06-05T06:36:16.446Z,120
2016-06-05T06:37:16.480Z,120
2016-06-05T06:38:16.265Z,120
2016-06-05T06:39:16.471Z,120
2016-06-05T06:40:16.426Z,120
2016-06-05T06:41:16.398Z,120
2016-06-05T06:42:16.401Z,120
2016-06-05T06:43:16.418Z,120
2016-06-05T06:44:16.390Z,120
2016-06-05T06:45:16.284Z,120
2016-06-05T06:46:16.364Z,125
2016-06-05T06:47:16.352Z,125
2016-06-05T06:48:16.198Z,125
2016-06-05T06:49:16.325Z,125
2016-06-05T06:50:16.156Z,125
2016-06-05T06:51:16.300Z,130
2016-06-05T06:52:16.303Z,130
2016-06-05T06:53:16.320Z,130
2016-06-05T06:54:16.276Z,130
2016-06-05T06:55:16.294Z,130
2016-06-05T06:56:16.281Z,130
2016-06-05T06:57:16.269Z,135
2016-06-05T06:58:16.225Z,135
2016-06-05T06:59:16.258Z,140
2016-06-05T07:00:16.246Z,135
2016-06-05T07:01:16.264Z,135
2016-06-05T07:02:16.329Z,135
2016-06-05T07:03:16.066Z,140
2016-06-05T07:04:16.132Z,140
2016-06-05T07:05:16.197Z,140
2016-06-05T07:06:16.372Z,140
2016-06-05T07:07:16.202Z,140
2016-06-05T07:08:16.252Z,140
2016-06-05T07:09:16.192Z,145
2016-06-05T07:10:16.163Z,145
2016-06-05T07:11:16.165Z,145
2016-06-05T07:12:16.199Z,145
2016-06-05T07:13:16.344Z,145
2016-06-05T07:14:16.143Z,145
2016-06-05T07:15:16.162Z,145
2016-06-05T07:16:16.117Z,145
2016-06-05T07:17:15.962Z,150
2016-06-05T07:18:16.216Z,150
2016-06-05T07:19:16.110Z,150
2016-06-05T07:20:16.112Z,150
2016-06-05T07:21:16.083Z,150
2016-06-05T07:22:16.101Z,45
2016-06-05T07:23:16.073Z,40
2016-06-05T07:24:16.076Z,45
2016-06-05T07:25:16.063Z,45
2016-06-05T07:26:16.066Z,45
2016-06-05T07:27:16.022Z,45
2016-06-05T07:28:16.697Z,45
2016-06-05T07:29:16.027Z,45
2016-06-05T07:30:16.014Z,45
2016-06-05T07:31:16.017Z,45
2016-06-05T07:32:16.019Z,45
2016-06-05T07:33:16.022Z,45
2016-06-05T07:34:15.978Z,45
2016-06-05T07:35:15.965Z,45
2016-06-05T07:36:15.999Z,45
2016-06-05T07:37:15.985Z,45
2016-06-05T07:38:15.974Z,45
2016-06-05T07:39:16.085Z,50
2016-06-05T07:40:15.963Z,50
2016-06-05T07:41:15.965Z,50
2016-06-05T07:42:15.921Z,50
2016-06-05T07:43:15.940Z,45
2016-06-05T07:44:15.692Z,50
2016-06-05T07:45:15.976Z,45
2016-06-05T07:46:15.932Z,45
2016-06-05T07:47:15.982Z,50
2016-06-05T07:48:15.890Z,50
2016-06-05T07:49:15.721Z,45
2016-06-05T07:50:15.881Z,45
2016-06-05T07:51:15.992Z,45
2016-06-05T07:52:15.854Z,45
2016-06-05T07:53:15.873Z,45
2016-06-05T07:54:15.859Z,45
2016-06-05T07:55:15.862Z,50
2016-06-05T07:56:15.834Z,45
2016-06-05T07:57:15.945Z,45
2016-06-05T07:58:16.496Z,45
2016-06-05T07:59:15.858Z,45
2016-06-05T08:00:15.828Z,45
2016-06-05T08:01:15.817Z,50
2016-06-05T08:02:15.819Z,45
2016-06-05T08:03:15.805Z,50
2016-06-05T08:04:15.808Z,50
2016-06-05T08:05:15.796Z,50
2016-06-05T08:06:15.783Z,55
2016-06-05T08:07:15.801Z,50
2016-06-05T08:08:15.772Z,50
2016-06-05T08:09:15.760Z,50
2016-06-05T08:10:15.590Z,50
2016-06-05T08:11:15.733Z,50
2016-06-05T08:12:15.736Z,50
2016-06-05T08:13:15.427Z,50
2016-06-05T08:14:15.726Z,50
2016-06-05T08:15:15.728Z,50
2016-06-05T08:16:15.778Z,50
2016-06-05T08:17:15.718Z,50
2016-06-05T08:18:15.768Z,50
2016-06-05T08:19:15.692Z,60
2016-06-05T08:20:15.679Z,55
2016-06-05T08:21:15.698Z,55
2016-06-05T08:22:15.762Z,55
2016-06-05T08:23:15.657Z,55
2016-06-05T08:24:15.768Z,55
2016-06-05T08:25:15.678Z,55
2016-06-05T08:26:15.695Z,55
2016-06-05T08:27:15.636Z,55
2016-06-05T08:28:15.686Z,55
2016-06-05T08:29:15.642Z,55
2016-06-05T08:30:15.472Z,55
2016-06-05T08:31:15.631Z,55
2016-06-05T08:32:15.619Z,55
2016-06-05T08:33:15.606Z,55
2016-06-05T08:34:15.639Z,60
2016-06-05T08:35:15.595Z,60
2016-06-05T08:36:15.629Z,60
2016-06-05T08:37:15.600Z,60
2016-06-05T08:38:15.634Z,60
2016-06-05T08:39:15.590Z,60
2016-06-05T08:40:15.577Z,60
2016-06-05T08:41:15.408Z,60
2016-06-05T08:42:15.552Z,60
2016-06-05T08:43:15.726Z,60
2016-06-05T08:44:16.010Z,60
2016-06-05T08:45:15.544Z,60
2016-06-05T08:46:15.531Z,60
2016-06-05T08:47:15.549Z,60
2016-06-05T08:48:15.521Z,60
2016-06-05T08:49:15.507Z,60
2016-06-05T08:50:15.245Z,60
2016-06-05T08:51:15.357Z,60
2016-06-05T08:52:15.515Z,60
2016-06-05T08:53:15.378Z,60
2016-06-05T08:54:15.505Z,60
2016-06-05T08:55:15.492Z,60
2016-06-05T08:56:15.479Z,60
2016-06-05T08:57:15.467Z,60
2016-06-05T08:58:15.578Z,60
2016-06-05T08:59:15.331Z,60
2016-06-05T09:00:15.459Z,60
2016-06-05T09:01:15.462Z,60
2016-06-05T09:02:15.292Z,60
2016-06-05T09:03:15.436Z,60
2016-06-05T09:04:15.455Z,60
2016-06-05T09:05:15.473Z,65
2016-06-05T09:06:15.428Z,65
2016-06-05T09:07:15.400Z,65
2016-06-05T09:08:15.403Z,65
2016-06-05T09:09:15.296Z,65
2016-06-05T09:10:15.424Z,65
2016-06-05T09:11:15.426Z,65
2016-06-05T09:12:15.257Z,65
2016-06-05T09:13:16.025Z,65
2016-06-05T09:14:15.387Z,65
2016-06-05T09:15:15.405Z,65
2016-06-05T09:16:15.377Z,65
2016-06-05T09:17:15.349Z,65
2016-06-05T09:18:15.367Z,65
2016-06-05T09:19:15.229Z,65
2016-06-05T09:20:15.373Z,65
2016-06-05T09:21:15.360Z,65
2016-06-05T09:22:15.346Z,70
2016-06-05T09:23:15.333Z,70
2016-06-05T09:24:15.336Z,70
2016-06-05T09:25:15.324Z,70
2016-06-05T09:26:15.342Z,70
2016-06-05T09:27:15.328Z,70
2016-06-05T09:28:16.284Z,70
2016-06-05T09:29:15.068Z,70
2016-06-05T09:30:15.321Z,70
2016-06-05T09:31:15.308Z,70
2016-06-05T09:32:15.311Z,70
2016-06-05T09:33:15.142Z,70
2016-06-05T09:34:15.364Z,75
2016-06-05T09:35:15.116Z,70
2016-06-05T09:36:15.118Z,70
2016-06-05T09:37:15.105Z,70
2016-06-05T09:38:15.155Z,70
2016-06-05T09:39:15.252Z,70
2016-06-05T09:40:15.254Z,70
2016-06-05T09:41:15.258Z,75
2016-06-05T09:42:15.307Z,75
2016-06-05T09:43:15.918Z,80
2016-06-05T09:44:15.093Z,75
2016-06-05T09:45:15.205Z,75
2016-06-05T09:46:15.208Z,75
2016-06-05T09:47:15.085Z,75
2016-06-05T09:48:15.213Z,75
2016-06-05T09:49:15.216Z,75
2016-06-05T09:50:15.110Z,75
2016-06-05T09:51:15.206Z,75
2016-06-05T09:52:15.209Z,75
2016-06-05T09:53:15.054Z,75
2016-06-05T09:54:15.167Z,75
2016-06-05T09:55:15.185Z,75
2016-06-05T09:56:15.188Z,75
2016-06-05T09:57:15.159Z,75
2016-06-05T09:58:15.725Z,75
2016-06-05T09:59:15.165Z,75
2016-06-05T10:00:15.152Z,75
2016-06-05T10:01:15.154Z,75
2016-06-05T10:02:15.142Z,80
2016-06-05T10:03:15.222Z,80
2016-06-05T10:04:15.131Z,80
2016-06-05T10:05:15.211Z,80
2016-06-05T10:06:15.137Z,80
2016-06-05T10:07:15.139Z,80
2016-06-05T10:08:15.127Z,80
2016-06-05T10:09:15.160Z,80
2016-06-05T10:10:15.100Z,80
2016-06-05T10:11:15.103Z,80
2016-06-05T10:12:15.091Z,80
2016-06-05T10:13:15.311Z,80
2016-06-05T10:14:15.110Z,80
2016-06-05T10:15:15.098Z,85
2016-06-05T10:16:14.929Z,85
2016-06-05T10:17:15.119Z,85
2016-06-05T10:18:15.090Z,90
2016-06-05T10:19:15.312Z,90
2016-06-05T10:20:15.065Z,130
2016-06-05T10:21:15.192Z,315
2016-06-05T10:22:15.085Z,435
2016-06-05T10:23:15.073Z,445
2016-06-05T10:24:15.076Z,415
2016-06-05T10:25:15.063Z,405
2016-06-05T10:26:15.065Z,420
2016-06-05T10:27:15.052Z,410
2016-06-05T10:28:15.118Z,380
2016-06-05T10:29:15.902Z,365
2016-06-05T10:30:15.154Z,385
2016-06-05T10:31:15.063Z,375
2016-06-05T10:32:15.112Z,355
2016-06-05T10:33:15.037Z,370
2016-06-05T10:34:15.134Z,370
2016-06-05T10:35:15.042Z,345
2016-06-05T10:36:15.061Z,345
2016-06-05T10:37:15.064Z,345
2016-06-05T10:38:15.066Z,340
2016-06-05T10:39:15.053Z,325
2016-06-05T10:40:14.916Z,255
2016-06-05T10:41:15.043Z,150
2016-06-05T10:42:15.139Z,95
2016-06-05T10:43:15.346Z,90
2016-06-05T10:44:15.019Z,90
2016-06-05T10:45:15.023Z,90
2016-06-05T10:46:15.072Z,90
2016-06-05T10:47:15.027Z,90
2016-06-05T10:48:15.030Z,90
2016-06-05T10:49:14.705Z,90
2016-06-05T10:50:15.021Z,90
2016-06-05T10:51:14.992Z,90
2016-06-05T10:52:15.010Z,90
2016-06-05T10:53:14.997Z,90
2016-06-05T10:54:15.001Z,90
2016-06-05T10:55:14.987Z,90
2016-06-05T10:56:14.990Z,95
2016-06-05T10:57:15.008Z,95
2016-06-05T10:58:15.120Z,95
2016-06-05T10:59:14.998Z,95
2016-06-05T11:00:14.984Z,95
2016-06-05T11:01:14.987Z,95
2016-06-05T11:02:14.975Z,90
2016-06-05T11:03:15.040Z,95
2016-06-05T11:04:14.965Z,95
2016-06-05T11:05:14.983Z,100
2016-06-05T11:06:14.985Z,100
2016-06-05T11:07:14.972Z,100
2016-06-05T11:08:14.928Z,100
2016-06-05T11:09:15.056Z,100
2016-06-05T11:10:14.934Z,100
2016-06-05T11:11:14.983Z,100
2016-06-05T11:12:14.939Z,100
2016-06-05T11:13:15.177Z,100
2016-06-05T11:14:14.945Z,100
2016-06-05T11:15:15.024Z,100
2016-06-05T11:16:14.949Z,105
2016-06-05T11:17:14.983Z,100
2016-06-05T11:18:14.924Z,100
2016-06-05T11:19:14.943Z,105
2016-06-05T11:20:14.945Z,100
2016-06-05T11:21:14.979Z,100
2016-06-05T11:22:14.918Z,105
2016-06-05T11:23:14.906Z,105
2016-06-05T11:24:14.893Z,105
2016-06-05T11:25:14.927Z,105
2016-06-05T11:26:14.758Z,105
2016-06-05T11:27:14.918Z,105
2016-06-05T11:28:14.888Z,105
2016-06-05T11:29:15.376Z,105
2016-06-05T11:30:14.909Z,100
2016-06-05T11:31:14.881Z,105
2016-06-05T11:32:14.787Z,105
2016-06-05T11:33:14.917Z,105
2016-06-05T11:34:14.983Z,105
2016-06-05T11:35:14.873Z,45
2016-06-05T11:36:14.923Z,50
2016-06-05T11:37:14.894Z,110
2016-06-05T11:38:14.897Z,105
2016-06-05T11:39:14.853Z,80
2016-06-05T11:40:14.872Z,85
2016-06-05T11:41:14.858Z,115
2016-06-05T11:42:14.877Z,45
2016-06-05T11:43:14.566Z,45
2016-06-05T11:44:16.025Z,55
2016-06-05T11:45:14.853Z,115
2016-06-05T11:46:14.856Z,115
2016-06-05T11:47:14.702Z,115
2016-06-05T11:48:14.846Z,110
2016-06-05T11:49:14.849Z,110
2016-06-05T11:50:14.851Z,110
2016-06-05T11:51:14.838Z,110
2016-06-05T11:52:14.840Z,110
2016-06-05T11:53:14.827Z,110
2016-06-05T11:54:14.831Z,110
2016-06-05T11:55:14.818Z,110
2016-06-05T11:56:14.835Z,60
2016-06-05T11:57:14.698Z,95
2016-06-05T11:58:14.841Z,80
2016-06-05T11:59:16.175Z,90
2016-06-05T12:00:14.800Z,65
2016-06-05T12:01:14.709Z,60
2016-06-05T12:02:14.805Z,60
2016-06-05T12:03:14.979Z,105
2016-06-05T12:04:14.795Z,115
2016-06-05T12:05:14.813Z,115
2016-06-05T12:06:14.832Z,115
2016-06-05T12:07:14.648Z,115
2016-06-05T12:08:14.805Z,120
2016-06-05T12:09:14.793Z,115
2016-06-05T12:10:14.796Z,115
2016-06-05T12:11:14.642Z,110
2016-06-05T12:12:14.786Z,80
2016-06-05T12:13:14.695Z,110
2016-06-05T12:14:14.650Z,105
2016-06-05T12:15:14.761Z,85
2016-06-05T12:16:14.765Z,110
2016-06-05T12:17:14.814Z,110
2016-06-05T12:18:14.769Z,110
2016-06-05T12:19:14.789Z,110
2016-06-05T12:20:14.760Z,105
2016-06-05T12:21:14.732Z,105
2016-06-05T12:22:14.750Z,105
2016-06-05T12:23:14.596Z,110
2016-06-05T12:24:14.755Z,110
2016-06-05T12:25:14.757Z,105
2016-06-05T12:26:14.839Z,105
2016-06-05T12:27:14.747Z,105
2016-06-05T12:28:15.640Z,105
2016-06-05T12:29:14.862Z,105
2016-06-05T12:30:14.756Z,105
2016-06-05T12:31:14.742Z,105
2016-06-05T12:32:14.745Z,105
2016-06-05T12:33:14.717Z,110
2016-06-05T12:34:14.563Z,105
2016-06-05T12:35:14.723Z,105
2016-06-05T12:36:14.818Z,115
2016-06-05T12:37:14.742Z,110
2016-06-05T12:38:14.731Z,105
2016-06-05T12:39:14.733Z,105
2016-06-05T12:40:14.736Z,110
2016-06-05T12:41:14.706Z,105
2016-06-05T12:42:14.757Z,100
2016-06-05T12:43:14.650Z,105
2016-06-05T12:44:14.825Z,105
2016-06-05T12:45:14.703Z,105
2016-06-05T12:46:14.689Z,105
2016-06-05T12:47:14.692Z,105
2016-06-05T12:48:14.725Z,105
2016-06-05T12:49:14.697Z,105
2016-06-05T12:50:14.513Z,105
2016-06-05T12:51:14.671Z,105
2016-06-05T12:52:14.533Z,105
2016-06-05T12:53:14.677Z,105
2016-06-05T12:54:14.524Z,105
2016-06-05T12:55:14.666Z,105
2016-06-05T12:56:14.513Z,105
2016-06-05T12:57:14.672Z,100
2016-06-05T12:58:14.535Z,50
2016-06-05T12:59:14.974Z,50
2016-06-05T13:00:14.507Z,50
2016-06-05T13:01:14.699Z,50
2016-06-05T13:02:14.670Z,65
2016-06-05T13:03:14.703Z,105
2016-06-05T13:04:14.660Z,95
2016-06-05T13:05:14.678Z,90
2016-06-05T13:06:14.665Z,50
2016-06-05T13:07:14.684Z,50
2016-06-05T13:08:14.639Z,45
2016-06-05T13:09:14.642Z,70
2016-06-05T13:10:14.644Z,85
2016-06-05T13:11:14.647Z,90
2016-06-05T13:12:14.634Z,95
2016-06-05T13:13:14.497Z,95
2016-06-05T13:14:14.983Z,95
2016-06-05T13:15:14.627Z,95
2016-06-05T13:16:14.630Z,95
2016-06-05T13:17:14.647Z,100
2016-06-05T13:18:14.603Z,100
2016-06-05T13:19:14.638Z,95
2016-06-05T13:20:14.624Z,95
2016-06-05T13:21:14.611Z,95
2016-06-05T13:22:14.614Z,95
2016-06-05T13:23:14.616Z,95
2016-06-05T13:24:14.615Z,95
2016-06-05T13:25:14.656Z,95
2016-06-05T13:26:14.667Z,95
2016-06-05T13:27:14.693Z,90
2016-06-05T13:28:15.094Z,95
2016-06-05T13:29:14.972Z,90
2016-06-05T13:30:14.593Z,90
2016-06-05T13:31:14.729Z,90
2016-06-05T13:32:14.803Z,90
2016-06-05T13:33:14.752Z,95
2016-06-05T13:34:14.745Z,90
2016-06-05T13:35:14.751Z,90
2016-06-05T13:36:14.788Z,90
2016-06-05T13:37:14.747Z,90
2016-06-05T13:38:14.721Z,90
2016-06-05T13:39:14.726Z,90
2016-06-05T13:40:14.777Z,90
2016-06-05T13:41:14.750Z,90
2016-06-05T13:42:14.737Z,90
2016-06-05T13:43:14.928Z,95
2016-06-05T13:44:14.760Z,95
2016-06-05T13:45:14.748Z,95
2016-06-05T13:46:14.735Z,95
2016-06-05T13:47:14.737Z,95
2016-06-05T13:48:14.569Z,95
2016-06-05T13:49:14.416Z,95
2016-06-05T13:50:14.746Z,50
2016-06-05T13:51:14.718Z,45
2016-06-05T13:52:14.284Z,50
2016-06-05T13:53:14.661Z,85
2016-06-05T13:54:14.757Z,90
2016-06-05T13:55:14.713Z,90
2016-06-05T13:56:14.701Z,90
2016-06-05T13:57:14.798Z,90
2016-06-05T13:58:15.175Z,90
2016-06-05T13:59:14.240Z,90
2016-06-05T14:00:14.712Z,90
2016-06-05T14:01:14.776Z,85
2016-06-05T14:02:14.686Z,85
2016-06-05T14:03:14.766Z,85
2016-06-05T14:04:14.691Z,85
2016-06-05T14:05:14.787Z,85
2016-06-05T14:06:14.540Z,85
2016-06-05T14:07:14.683Z,65
2016-06-05T14:08:14.686Z,75
2016-06-05T14:09:14.673Z,85
2016-06-05T14:10:14.675Z,85
2016-06-05T14:11:14.725Z,85
2016-06-05T14:12:14.680Z,85
2016-06-05T14:13:14.386Z,85
2016-06-05T14:14:14.750Z,85
2016-06-05T14:15:14.658Z,75
2016-06-05T14:16:14.660Z,45